sensor_id;sensor_type;location;lat;lon;timestamp;pressure;altitude;pressure_sealevel;temperature;humidity
66398;BME280;54877;51.504;3.894;2024-02-26T00:01:22;99742.63;;;9.26;65.38
66398;BME280;54877;51.504;3.894;2024-02-26T00:03:48;99744.59;;;9.22;65.42
66398;BME280;54877;51.504;3.894;2024-02-26T00:06:13;99742.56;;;9.13;65.75
66398;BME280;54877;51.504;3.894;2024-02-26T00:08:38;99740.28;;;9.21;65.48
66398;BME280;54877;51.504;3.894;2024-02-26T00:11:04;99744.03;;;9.17;65.72
66398;BME280;54877;51.504;3.894;2024-02-26T00:13:29;99743.13;;;9.18;65.60
66398;BME280;54877;51.504;3.894;2024-02-26T00:15:54;99741.78;;;9.25;65.45
66398;BME280;54877;51.504;3.894;2024-02-26T00:18:20;99748.59;;;9.29;65.19
66398;BME280;54877;51.504;3.894;2024-02-26T00:20:45;99743.50;;;9.26;65.82
66398;BME280;54877;51.504;3.894;2024-02-26T00:23:10;99745.56;;;9.21;65.76
66398;BME280;54877;51.504;3.894;2024-02-26T00:25:36;99743.13;;;9.32;65.65
66398;BME280;54877;51.504;3.894;2024-02-26T00:28:02;99740.97;;;9.25;65.82
66398;BME280;54877;51.504;3.894;2024-02-26T00:30:29;99739.13;;;9.25;65.84
66398;BME280;54877;51.504;3.894;2024-02-26T00:32:54;99747.00;;;9.27;65.82
66398;BME280;54877;51.504;3.894;2024-02-26T00:35:20;99758.66;;;9.23;66.16
66398;BME280;54877;51.504;3.894;2024-02-26T00:37:45;99743.00;;;9.20;66.32
66398;BME280;54877;51.504;3.894;2024-02-26T00:40:11;99748.22;;;9.21;66.64
66398;BME280;54877;51.504;3.894;2024-02-26T00:42:36;99752.16;;;9.28;66.59
66398;BME280;54877;51.504;3.894;2024-02-26T00:45:02;99744.91;;;9.18;66.66
66398;BME280;54877;51.504;3.894;2024-02-26T00:47:27;99749.72;;;9.11;67.00
66398;BME280;54877;51.504;3.894;2024-02-26T00:49:53;99744.63;;;9.08;67.28
66398;BME280;54877;51.504;3.894;2024-02-26T00:52:18;99742.63;;;8.98;67.30
66398;BME280;54877;51.504;3.894;2024-02-26T00:54:44;99744.88;;;9.04;67.93
66398;BME280;54877;51.504;3.894;2024-02-26T00:57:09;99736.34;;;9.00;67.77
66398;BME280;54877;51.504;3.894;2024-02-26T00:59:35;99741.63;;;9.00;67.54
66398;BME280;54877;51.504;3.894;2024-02-26T01:02:00;99735.91;;;8.92;68.20
66398;BME280;54877;51.504;3.894;2024-02-26T01:04:27;99736.88;;;8.91;68.01
66398;BME280;54877;51.504;3.894;2024-02-26T01:06:52;99734.78;;;8.82;68.47
66398;BME280;54877;51.504;3.894;2024-02-26T01:09:17;99729.22;;;8.86;68.42
66398;BME280;54877;51.504;3.894;2024-02-26T01:11:43;99729.44;;;8.83;68.40
66398;BME280;54877;51.504;3.894;2024-02-26T01:14:08;99721.59;;;8.82;68.22
66398;BME280;54877;51.504;3.894;2024-02-26T01:16:34;99728.94;;;8.77;68.19
66398;BME280;54877;51.504;3.894;2024-02-26T01:18:59;99744.03;;;8.75;68.20
66398;BME280;54877;51.504;3.894;2024-02-26T01:21:25;99735.13;;;8.76;68.01
66398;BME280;54877;51.504;3.894;2024-02-26T01:23:54;99747.97;;;8.82;68.16
66398;BME280;54877;51.504;3.894;2024-02-26T01:26:19;99744.09;;;8.73;68.27
66398;BME280;54877;51.504;3.894;2024-02-26T01:28:46;99750.13;;;8.75;68.06
66398;BME280;54877;51.504;3.894;2024-02-26T01:31:11;99757.09;;;8.76;68.23
66398;BME280;54877;51.504;3.894;2024-02-26T01:33:36;99762.38;;;8.76;68.09
66398;BME280;54877;51.504;3.894;2024-02-26T01:36:02;99763.22;;;8.63;68.32
66398;BME280;54877;51.504;3.894;2024-02-26T01:38:27;99758.44;;;8.69;68.30
66398;BME280;54877;51.504;3.894;2024-02-26T01:40:53;99747.38;;;8.63;68.57
66398;BME280;54877;51.504;3.894;2024-02-26T01:43:18;99770.66;;;8.70;68.14
66398;BME280;54877;51.504;3.894;2024-02-26T01:45:43;99758.50;;;8.68;68.30
66398;BME280;54877;51.504;3.894;2024-02-26T01:48:08;99767.94;;;8.72;68.06
66398;BME280;54877;51.504;3.894;2024-02-26T01:50:35;99766.25;;;8.71;68.20
66398;BME280;54877;51.504;3.894;2024-02-26T01:53:02;99768.47;;;8.63;68.29
66398;BME280;54877;51.504;3.894;2024-02-26T01:55:28;99776.97;;;8.68;68.13
66398;BME280;54877;51.504;3.894;2024-02-26T01:57:54;99779.25;;;8.74;67.82
66398;BME280;54877;51.504;3.894;2024-02-26T02:00:20;99771.69;;;8.68;67.75
66398;BME280;54877;51.504;3.894;2024-02-26T02:02:46;99778.56;;;8.70;67.77
66398;BME280;54877;51.504;3.894;2024-02-26T02:05:13;99789.59;;;8.63;67.80
66398;BME280;54877;51.504;3.894;2024-02-26T02:07:41;99785.25;;;8.62;68.11
66398;BME280;54877;51.504;3.894;2024-02-26T02:10:06;99783.28;;;8.65;67.96
66398;BME280;54877;51.504;3.894;2024-02-26T02:12:32;99786.84;;;8.64;68.40
66398;BME280;54877;51.504;3.894;2024-02-26T02:14:59;99791.13;;;8.67;68.24
66398;BME280;54877;51.504;3.894;2024-02-26T02:17:25;99791.59;;;8.73;68.46
66398;BME280;54877;51.504;3.894;2024-02-26T02:19:52;99791.28;;;8.64;68.90
66398;BME280;54877;51.504;3.894;2024-02-26T02:22:18;99789.41;;;8.66;68.89
66398;BME280;54877;51.504;3.894;2024-02-26T02:24:44;99780.91;;;8.61;68.98
66398;BME280;54877;51.504;3.894;2024-02-26T02:27:10;99797.22;;;8.67;69.45
66398;BME280;54877;51.504;3.894;2024-02-26T02:29:35;99804.09;;;8.70;69.25
66398;BME280;54877;51.504;3.894;2024-02-26T02:32:02;99800.72;;;8.68;70.28
66398;BME280;54877;51.504;3.894;2024-02-26T02:34:29;99803.63;;;8.63;70.51
66398;BME280;54877;51.504;3.894;2024-02-26T02:36:56;99802.31;;;8.70;70.84
66398;BME280;54877;51.504;3.894;2024-02-26T02:39:22;99800.53;;;8.71;71.20
66398;BME280;54877;51.504;3.894;2024-02-26T02:41:47;99811.81;;;8.59;71.52
66398;BME280;54877;51.504;3.894;2024-02-26T02:44:12;99811.81;;;8.59;71.48
66398;BME280;54877;51.504;3.894;2024-02-26T02:46:38;99812.59;;;8.61;71.57
66398;BME280;54877;51.504;3.894;2024-02-26T02:49:04;99814.88;;;8.51;72.02
66398;BME280;54877;51.504;3.894;2024-02-26T02:51:29;99809.13;;;8.45;72.59
66398;BME280;54877;51.504;3.894;2024-02-26T02:53:54;99808.44;;;8.41;72.57
66398;BME280;54877;51.504;3.894;2024-02-26T02:56:20;99809.94;;;8.45;71.96
66398;BME280;54877;51.504;3.894;2024-02-26T02:58:45;99827.94;;;8.39;72.14
66398;BME280;54877;51.504;3.894;2024-02-26T03:01:10;99823.25;;;8.44;72.06
66398;BME280;54877;51.504;3.894;2024-02-26T03:03:35;99817.88;;;8.45;72.38
66398;BME280;54877;51.504;3.894;2024-02-26T03:06:02;99819.69;;;8.29;72.96
66398;BME280;54877;51.504;3.894;2024-02-26T03:08:28;99825.19;;;8.24;73.50
66398;BME280;54877;51.504;3.894;2024-02-26T03:10:54;99837.38;;;8.27;73.58
66398;BME280;54877;51.504;3.894;2024-02-26T03:13:19;99832.19;;;8.25;73.30
66398;BME280;54877;51.504;3.894;2024-02-26T03:15:44;99841.28;;;8.20;73.60
66398;BME280;54877;51.504;3.894;2024-02-26T03:18:10;99834.97;;;8.22;73.64
66398;BME280;54877;51.504;3.894;2024-02-26T03:20:35;99837.69;;;8.21;73.78
66398;BME280;54877;51.504;3.894;2024-02-26T03:23:01;99836.06;;;8.18;73.83
66398;BME280;54877;51.504;3.894;2024-02-26T03:25:27;99839.63;;;8.17;74.23
66398;BME280;54877;51.504;3.894;2024-02-26T03:27:52;99843.06;;;8.19;74.22
66398;BME280;54877;51.504;3.894;2024-02-26T03:30:18;99839.16;;;8.11;74.74
66398;BME280;54877;51.504;3.894;2024-02-26T03:32:43;99843.50;;;8.27;74.50
66398;BME280;54877;51.504;3.894;2024-02-26T03:35:08;99846.03;;;8.13;74.66
66398;BME280;54877;51.504;3.894;2024-02-26T03:37:34;99849.69;;;7.95;75.49
66398;BME280;54877;51.504;3.894;2024-02-26T03:39:59;99834.69;;;7.96;75.79
66398;BME280;54877;51.504;3.894;2024-02-26T03:42:26;99855.72;;;7.97;75.35
66398;BME280;54877;51.504;3.894;2024-02-26T03:44:51;99854.44;;;8.04;75.63
66398;BME280;54877;51.504;3.894;2024-02-26T03:47:17;99859.53;;;8.07;75.61
66398;BME280;54877;51.504;3.894;2024-02-26T03:49:42;99871.22;;;8.03;75.95
66398;BME280;54877;51.504;3.894;2024-02-26T03:52:07;99875.19;;;8.10;75.44
66398;BME280;54877;51.504;3.894;2024-02-26T03:54:33;99863.56;;;8.14;75.39
66398;BME280;54877;51.504;3.894;2024-02-26T03:56:58;99884.38;;;8.03;75.49
66398;BME280;54877;51.504;3.894;2024-02-26T03:59:23;99873.91;;;8.17;75.14
66398;BME280;54877;51.504;3.894;2024-02-26T04:01:50;99863.56;;;8.14;75.60
66398;BME280;54877;51.504;3.894;2024-02-26T04:04:15;99874.59;;;8.21;74.97
66398;BME280;54877;51.504;3.894;2024-02-26T04:06:44;99864.31;;;8.16;75.01
66398;BME280;54877;51.504;3.894;2024-02-26T04:09:15;99868.56;;;8.03;75.21
66398;BME280;54877;51.504;3.894;2024-02-26T04:11:41;99875.53;;;8.04;75.63
66398;BME280;54877;51.504;3.894;2024-02-26T04:14:08;99874.06;;;7.99;75.60
66398;BME280;54877;51.504;3.894;2024-02-26T04:16:34;99883.19;;;8.09;75.70
66398;BME280;54877;51.504;3.894;2024-02-26T04:19:00;99888.28;;;8.12;75.24
66398;BME280;54877;51.504;3.894;2024-02-26T04:21:26;99881.31;;;8.11;75.43
66398;BME280;54877;51.504;3.894;2024-02-26T04:23:51;99896.81;;;8.17;75.16
66398;BME280;54877;51.504;3.894;2024-02-26T04:26:20;99892.56;;;8.14;75.37
66398;BME280;54877;51.504;3.894;2024-02-26T04:28:45;99887.63;;;8.08;74.81
66398;BME280;54877;51.504;3.894;2024-02-26T04:31:11;99901.88;;;8.04;74.86
66398;BME280;54877;51.504;3.894;2024-02-26T04:33:36;99895.16;;;7.99;75.14
66398;BME280;54877;51.504;3.894;2024-02-26T04:36:01;99907.16;;;8.04;74.79
66398;BME280;54877;51.504;3.894;2024-02-26T04:38:27;99907.25;;;8.03;74.29
66398;BME280;54877;51.504;3.894;2024-02-26T04:40:53;99917.69;;;8.04;74.33
66398;BME280;54877;51.504;3.894;2024-02-26T04:43:18;99916.75;;;7.90;74.55
66398;BME280;54877;51.504;3.894;2024-02-26T04:45:44;99914.94;;;7.90;74.68
66398;BME280;54877;51.504;3.894;2024-02-26T04:48:10;99922.47;;;7.98;74.56
66398;BME280;54877;51.504;3.894;2024-02-26T04:50:35;99929.41;;;7.83;74.47
66398;BME280;54877;51.504;3.894;2024-02-26T04:53:00;99923.28;;;7.98;74.31
66398;BME280;54877;51.504;3.894;2024-02-26T04:55:25;99924.47;;;7.93;74.77
66398;BME280;54877;51.504;3.894;2024-02-26T04:57:51;99936.19;;;7.87;74.79
66398;BME280;54877;51.504;3.894;2024-02-26T05:00:16;99942.41;;;7.86;74.80
66398;BME280;54877;51.504;3.894;2024-02-26T05:02:42;99932.78;;;7.85;74.73
66398;BME280;54877;51.504;3.894;2024-02-26T05:05:07;99934.81;;;7.80;74.65
66398;BME280;54877;51.504;3.894;2024-02-26T05:07:33;99943.66;;;7.79;74.30
66398;BME280;54877;51.504;3.894;2024-02-26T05:09:59;99946.00;;;7.68;74.52
66398;BME280;54877;51.504;3.894;2024-02-26T05:12:24;99949.06;;;7.76;74.67
66398;BME280;54877;51.504;3.894;2024-02-26T05:14:50;99955.00;;;7.64;75.03
66398;BME280;54877;51.504;3.894;2024-02-26T05:17:15;99940.56;;;7.71;74.98
66398;BME280;54877;51.504;3.894;2024-02-26T05:19:40;99946.63;;;7.73;74.95
66398;BME280;54877;51.504;3.894;2024-02-26T05:22:06;99951.41;;;7.82;75.00
66398;BME280;54877;51.504;3.894;2024-02-26T05:24:31;99956.69;;;7.65;75.20
66398;BME280;54877;51.504;3.894;2024-02-26T05:26:56;99947.72;;;7.69;74.59
66398;BME280;54877;51.504;3.894;2024-02-26T05:29:22;99955.88;;;7.64;75.02
66398;BME280;54877;51.504;3.894;2024-02-26T05:31:47;99944.16;;;7.70;74.96
66398;BME280;54877;51.504;3.894;2024-02-26T05:34:12;99969.25;;;7.77;75.10
66398;BME280;54877;51.504;3.894;2024-02-26T05:36:37;99967.88;;;7.70;74.74
66398;BME280;54877;51.504;3.894;2024-02-26T05:39:03;99968.63;;;7.72;74.90
66398;BME280;54877;51.504;3.894;2024-02-26T05:41:29;99970.34;;;7.73;74.33
66398;BME280;54877;51.504;3.894;2024-02-26T05:43:54;99985.81;;;7.79;74.31
66398;BME280;54877;51.504;3.894;2024-02-26T05:46:20;99973.44;;;7.81;74.37
66398;BME280;54877;51.504;3.894;2024-02-26T05:48:46;99983.97;;;7.64;74.59
66398;BME280;54877;51.504;3.894;2024-02-26T05:51:13;99972.34;;;7.68;74.70
66398;BME280;54877;51.504;3.894;2024-02-26T05:53:38;99992.19;;;7.75;74.64
66398;BME280;54877;51.504;3.894;2024-02-26T05:56:04;99985.13;;;7.76;74.68
66398;BME280;54877;51.504;3.894;2024-02-26T05:58:31;99993.34;;;7.69;74.73
66398;BME280;54877;51.504;3.894;2024-02-26T06:00:56;100004.41;;;7.76;74.44
66398;BME280;54877;51.504;3.894;2024-02-26T06:03:22;100003.03;;;7.69;74.35
66398;BME280;54877;51.504;3.894;2024-02-26T06:05:47;100014.63;;;7.65;74.08
66398;BME280;54877;51.504;3.894;2024-02-26T06:08:12;100007.53;;;7.67;74.35
66398;BME280;54877;51.504;3.894;2024-02-26T06:10:38;100023.03;;;7.56;74.49
66398;BME280;54877;51.504;3.894;2024-02-26T06:13:04;100024.81;;;7.55;74.58
66398;BME280;54877;51.504;3.894;2024-02-26T06:15:29;100016.66;;;7.60;74.14
66398;BME280;54877;51.504;3.894;2024-02-26T06:17:55;100024.66;;;7.58;74.20
66398;BME280;54877;51.504;3.894;2024-02-26T06:20:20;100013.56;;;7.52;74.28
66398;BME280;54877;51.504;3.894;2024-02-26T06:22:45;100048.56;;;7.54;74.40
66398;BME280;54877;51.504;3.894;2024-02-26T06:25:11;100054.56;;;7.57;74.24
66398;BME280;54877;51.504;3.894;2024-02-26T06:27:36;100043.50;;;7.51;74.23
66398;BME280;54877;51.504;3.894;2024-02-26T06:30:01;100042.63;;;7.67;73.90
66398;BME280;54877;51.504;3.894;2024-02-26T06:32:27;100050.00;;;7.61;73.82
66398;BME280;54877;51.504;3.894;2024-02-26T06:34:54;100059.75;;;7.59;73.47
66398;BME280;54877;51.504;3.894;2024-02-26T06:37:19;100054.81;;;7.70;73.37
66398;BME280;54877;51.504;3.894;2024-02-26T06:39:45;100067.50;;;7.62;73.64
66398;BME280;54877;51.504;3.894;2024-02-26T06:42:10;100063.78;;;7.66;73.62
66398;BME280;54877;51.504;3.894;2024-02-26T06:44:35;100077.88;;;7.65;73.76
66398;BME280;54877;51.504;3.894;2024-02-26T06:47:01;100078.34;;;7.56;73.32
66398;BME280;54877;51.504;3.894;2024-02-26T06:49:27;100065.78;;;7.61;73.25
66398;BME280;54877;51.504;3.894;2024-02-26T06:51:53;100089.81;;;7.72;73.09
66398;BME280;54877;51.504;3.894;2024-02-26T06:54:18;100093.53;;;7.68;73.08
66398;BME280;54877;51.504;3.894;2024-02-26T06:56:44;100101.25;;;7.54;73.20
66398;BME280;54877;51.504;3.894;2024-02-26T06:59:09;100097.25;;;7.64;73.25
66398;BME280;54877;51.504;3.894;2024-02-26T07:01:34;100100.66;;;7.66;73.16
66398;BME280;54877;51.504;3.894;2024-02-26T07:04:00;100106.34;;;7.76;73.11
66398;BME280;54877;51.504;3.894;2024-02-26T07:06:25;100116.16;;;7.72;72.81
66398;BME280;54877;51.504;3.894;2024-02-26T07:08:51;100118.81;;;7.72;72.99
66398;BME280;54877;51.504;3.894;2024-02-26T07:11:17;100118.81;;;7.72;72.62
66398;BME280;54877;51.504;3.894;2024-02-26T07:13:44;100125.13;;;7.68;72.85
66398;BME280;54877;51.504;3.894;2024-02-26T07:16:09;100121.72;;;7.66;72.68
66398;BME280;54877;51.504;3.894;2024-02-26T07:18:35;100124.22;;;7.69;73.40
66398;BME280;54877;51.504;3.894;2024-02-26T07:21:03;100143.28;;;7.74;73.01
66398;BME280;54877;51.504;3.894;2024-02-26T07:23:29;100144.06;;;7.59;73.06
66398;BME280;54877;51.504;3.894;2024-02-26T07:25:55;100161.34;;;7.64;73.04
66398;BME280;54877;51.504;3.894;2024-02-26T07:28:20;100144.69;;;7.64;73.59
66398;BME280;54877;51.504;3.894;2024-02-26T07:30:45;100157.06;;;7.62;73.53
66398;BME280;54877;51.504;3.894;2024-02-26T07:33:11;100160.06;;;7.54;73.12
66398;BME280;54877;51.504;3.894;2024-02-26T07:35:36;100155.50;;;7.58;73.17
66398;BME280;54877;51.504;3.894;2024-02-26T07:38:03;100158.88;;;7.43;73.61
66398;BME280;54877;51.504;3.894;2024-02-26T07:40:29;100169.72;;;7.54;73.97
66398;BME280;54877;51.504;3.894;2024-02-26T07:42:55;100175.72;;;7.57;73.81
66398;BME280;54877;51.504;3.894;2024-02-26T07:45:20;100178.28;;;7.59;73.27
66398;BME280;54877;51.504;3.894;2024-02-26T07:47:49;100194.53;;;7.50;73.83
66398;BME280;54877;51.504;3.894;2024-02-26T07:50:16;100175.81;;;7.56;73.81
66398;BME280;54877;51.504;3.894;2024-02-26T07:52:41;100195.38;;;7.50;73.67
66398;BME280;54877;51.504;3.894;2024-02-26T07:55:07;100192.94;;;7.46;73.84
66398;BME280;54877;51.504;3.894;2024-02-26T07:57:32;100201.50;;;7.51;73.92
66398;BME280;54877;51.504;3.894;2024-02-26T08:00:01;100198.78;;;7.52;73.60
66398;BME280;54877;51.504;3.894;2024-02-26T08:02:28;100211.19;;;7.50;73.31
66398;BME280;54877;51.504;3.894;2024-02-26T08:04:53;100211.84;;;7.37;73.50
66398;BME280;54877;51.504;3.894;2024-02-26T08:07:18;100210.13;;;7.36;74.32
66398;BME280;54877;51.504;3.894;2024-02-26T08:09:45;100216.03;;;7.41;73.98
66398;BME280;54877;51.504;3.894;2024-02-26T08:12:11;100224.56;;;7.46;74.13
66398;BME280;54877;51.504;3.894;2024-02-26T08:14:36;100223.41;;;7.51;73.80
66398;BME280;54877;51.504;3.894;2024-02-26T08:17:01;100215.16;;;7.40;74.42
66398;BME280;54877;51.504;3.894;2024-02-26T08:19:27;100238.81;;;7.42;73.94
66398;BME280;54877;51.504;3.894;2024-02-26T08:21:52;100228.41;;;7.39;73.69
66398;BME280;54877;51.504;3.894;2024-02-26T08:24:17;100233.91;;;7.53;73.79
66398;BME280;54877;51.504;3.894;2024-02-26T08:26:43;100241.66;;;7.56;74.30
66398;BME280;54877;51.504;3.894;2024-02-26T08:29:08;100242.34;;;7.41;74.30
66398;BME280;54877;51.504;3.894;2024-02-26T08:31:33;100237.38;;;7.53;74.05
66398;BME280;54877;51.504;3.894;2024-02-26T08:34:02;100258.72;;;7.66;73.93
66398;BME280;54877;51.504;3.894;2024-02-26T08:36:28;100261.66;;;7.60;73.96
66398;BME280;54877;51.504;3.894;2024-02-26T08:38:53;100261.59;;;7.61;73.97
66398;BME280;54877;51.504;3.894;2024-02-26T08:41:18;100256.22;;;7.63;73.89
66398;BME280;54877;51.504;3.894;2024-02-26T08:43:44;100272.03;;;7.63;74.30
66398;BME280;54877;51.504;3.894;2024-02-26T08:46:09;100270.84;;;7.70;74.38
66398;BME280;54877;51.504;3.894;2024-02-26T08:48:35;100277.44;;;7.60;74.32
66398;BME280;54877;51.504;3.894;2024-02-26T08:51:04;100292.69;;;7.72;74.41
66398;BME280;54877;51.504;3.894;2024-02-26T08:53:34;100281.81;;;7.61;74.33
66398;BME280;54877;51.504;3.894;2024-02-26T08:55:59;100295.34;;;7.53;74.82
66398;BME280;54877;51.504;3.894;2024-02-26T08:58:26;100285.78;;;7.51;75.14
66398;BME280;54877;51.504;3.894;2024-02-26T09:00:52;100298.53;;;7.60;75.10
66398;BME280;54877;51.504;3.894;2024-02-26T09:03:17;100316.28;;;7.56;75.22
66398;BME280;54877;51.504;3.894;2024-02-26T09:05:43;100302.16;;;7.76;74.80
66398;BME280;54877;51.504;3.894;2024-02-26T09:08:08;100314.97;;;7.65;75.34
66398;BME280;54877;51.504;3.894;2024-02-26T09:10:33;100288.94;;;7.59;74.92
66398;BME280;54877;51.504;3.894;2024-02-26T09:12:59;100317.09;;;7.57;75.09
66398;BME280;54877;51.504;3.894;2024-02-26T09:15:24;100305.16;;;7.50;74.93
66398;BME280;54877;51.504;3.894;2024-02-26T09:17:50;100322.38;;;7.57;74.99
66398;BME280;54877;51.504;3.894;2024-02-26T09:20:15;100329.50;;;7.55;75.51
66398;BME280;54877;51.504;3.894;2024-02-26T09:22:45;100333.03;;;7.54;75.37
66398;BME280;54877;51.504;3.894;2024-02-26T09:25:11;100339.75;;;7.61;75.04
66398;BME280;54877;51.504;3.894;2024-02-26T09:27:36;100333.75;;;7.57;74.93
66398;BME280;54877;51.504;3.894;2024-02-26T09:30:01;100352.28;;;7.56;74.95
66398;BME280;54877;51.504;3.894;2024-02-26T09:32:27;100345.81;;;7.63;74.94
66398;BME280;54877;51.504;3.894;2024-02-26T09:34:53;100352.94;;;7.61;74.36
66398;BME280;54877;51.504;3.894;2024-02-26T09:37:18;100370.34;;;7.45;75.12
66398;BME280;54877;51.504;3.894;2024-02-26T09:39:43;100359.09;;;7.60;75.32
66398;BME280;54877;51.504;3.894;2024-02-26T09:42:09;100371.78;;;7.52;75.44
66398;BME280;54877;51.504;3.894;2024-02-26T09:44:39;100378.75;;;7.53;75.57
66398;BME280;54877;51.504;3.894;2024-02-26T09:47:07;100384.69;;;7.58;75.12
66398;BME280;54877;51.504;3.894;2024-02-26T09:49:34;100369.22;;;7.50;75.46
66398;BME280;54877;51.504;3.894;2024-02-26T09:52:00;100392.38;;;7.62;74.95
66398;BME280;54877;51.504;3.894;2024-02-26T09:54:27;100387.31;;;7.58;75.88
66398;BME280;54877;51.504;3.894;2024-02-26T09:56:56;100389.09;;;7.57;75.36
66398;BME280;54877;51.504;3.894;2024-02-26T09:59:24;100406.53;;;7.60;75.15
66398;BME280;54877;51.504;3.894;2024-02-26T10:01:51;100409.97;;;7.62;75.03
66398;BME280;54877;51.504;3.894;2024-02-26T10:04:18;100405.22;;;7.50;75.37
66398;BME280;54877;51.504;3.894;2024-02-26T10:06:44;100426.03;;;7.56;75.63
66398;BME280;54877;51.504;3.894;2024-02-26T10:09:11;100404.03;;;7.57;75.63
66398;BME280;54877;51.504;3.894;2024-02-26T10:11:37;100408.97;;;7.64;75.25
66398;BME280;54877;51.504;3.894;2024-02-26T10:14:03;100420.34;;;7.65;75.36
66398;BME280;54877;51.504;3.894;2024-02-26T10:16:28;100415.94;;;7.65;75.30
66398;BME280;54877;51.504;3.894;2024-02-26T10:18:54;100422.41;;;7.58;75.69
66398;BME280;54877;51.504;3.894;2024-02-26T10:21:20;100417.03;;;7.61;75.66
66398;BME280;54877;51.504;3.894;2024-02-26T10:23:46;100439.88;;;7.41;75.63
66398;BME280;54877;51.504;3.894;2024-02-26T10:26:13;100435.72;;;7.55;75.66
66398;BME280;54877;51.504;3.894;2024-02-26T10:28:39;100433.13;;;7.54;75.46
66398;BME280;54877;51.504;3.894;2024-02-26T10:31:06;100435.94;;;7.51;75.93
66398;BME280;54877;51.504;3.894;2024-02-26T10:33:33;100446.59;;;7.48;75.61
66398;BME280;54877;51.504;3.894;2024-02-26T10:36:00;100459.63;;;7.51;76.14
66398;BME280;54877;51.504;3.894;2024-02-26T10:38:26;100450.78;;;7.52;75.93
66398;BME280;54877;51.504;3.894;2024-02-26T10:40:51;100456.28;;;7.47;75.87
66398;BME280;54877;51.504;3.894;2024-02-26T10:43:17;100456.31;;;7.46;76.14
66398;BME280;54877;51.504;3.894;2024-02-26T10:45:43;100454.06;;;7.57;75.75
66398;BME280;54877;51.504;3.894;2024-02-26T10:48:09;100468.84;;;7.61;75.37
66398;BME280;54877;51.504;3.894;2024-02-26T10:50:36;100463.22;;;7.68;75.04
66398;BME280;54877;51.504;3.894;2024-02-26T10:53:01;100475.16;;;7.57;75.46
66398;BME280;54877;51.504;3.894;2024-02-26T10:55:28;100480.63;;;7.73;75.30
66398;BME280;54877;51.504;3.894;2024-02-26T10:57:55;100500.59;;;7.78;74.78
66398;BME280;54877;51.504;3.894;2024-02-26T11:00:21;100486.94;;;7.68;75.12
66398;BME280;54877;51.504;3.894;2024-02-26T11:02:47;100501.19;;;7.64;75.15
66398;BME280;54877;51.504;3.894;2024-02-26T11:05:13;100504.53;;;7.68;75.13
66398;BME280;54877;51.504;3.894;2024-02-26T11:07:39;100513.50;;;7.64;75.02
66398;BME280;54877;51.504;3.894;2024-02-26T11:10:06;100513.13;;;7.73;74.67
66398;BME280;54877;51.504;3.894;2024-02-26T11:12:33;100513.94;;;7.74;74.83
66398;BME280;54877;51.504;3.894;2024-02-26T11:15:02;100515.34;;;7.62;75.28
66398;BME280;54877;51.504;3.894;2024-02-26T11:17:28;100516.19;;;7.62;75.38
66398;BME280;54877;51.504;3.894;2024-02-26T11:19:56;100519.34;;;7.70;75.58
66398;BME280;54877;51.504;3.894;2024-02-26T11:22:23;100519.16;;;7.55;75.57
66398;BME280;54877;51.504;3.894;2024-02-26T11:24:51;100519.88;;;7.58;75.52
66398;BME280;54877;51.504;3.894;2024-02-26T11:27:17;100513.63;;;7.61;75.63
66398;BME280;54877;51.504;3.894;2024-02-26T11:29:51;100520.75;;;7.59;76.09
66398;BME280;54877;51.504;3.894;2024-02-26T11:32:19;100547.53;;;7.68;75.69
66398;BME280;54877;51.504;3.894;2024-02-26T11:34:44;100536.44;;;7.62;75.41
66398;BME280;54877;51.504;3.894;2024-02-26T11:37:11;100542.22;;;7.70;75.70
66398;BME280;54877;51.504;3.894;2024-02-26T11:39:42;100531.94;;;7.64;76.46
66398;BME280;54877;51.504;3.894;2024-02-26T11:42:10;100529.09;;;7.68;76.06
66398;BME280;54877;51.504;3.894;2024-02-26T11:44:39;100530.22;;;7.63;76.16
66398;BME280;54877;51.504;3.894;2024-02-26T11:47:13;100538.53;;;7.74;76.08
66398;BME280;54877;51.504;3.894;2024-02-26T11:49:39;100542.75;;;7.78;75.95
66398;BME280;54877;51.504;3.894;2024-02-26T11:52:06;100531.78;;;7.87;75.93
66398;BME280;54877;51.504;3.894;2024-02-26T11:54:49;100552.03;;;7.87;75.96
66398;BME280;54877;51.504;3.894;2024-02-26T11:57:22;100544.72;;;7.93;76.04
66398;BME280;54877;51.504;3.894;2024-02-26T12:02:43;100551.56;;;7.77;76.62
66398;BME280;54877;51.504;3.894;2024-02-26T12:05:16;100550.72;;;7.77;76.55
66398;BME280;54877;51.504;3.894;2024-02-26T12:07:47;100561.97;;;7.80;76.80
66398;BME280;54877;51.504;3.894;2024-02-26T12:12:59;100557.56;;;7.81;76.57
66398;BME280;54877;51.504;3.894;2024-02-26T12:15:37;100564.09;;;7.72;76.94
66398;BME280;54877;51.504;3.894;2024-02-26T12:18:05;100571.31;;;7.87;77.13
66398;BME280;54877;51.504;3.894;2024-02-26T12:20:32;100571.16;;;7.92;77.02
66398;BME280;54877;51.504;3.894;2024-02-26T12:22:58;100570.41;;;7.88;76.76
66398;BME280;54877;51.504;3.894;2024-02-26T12:25:25;100604.94;;;7.82;76.80
66398;BME280;54877;51.504;3.894;2024-02-26T12:27:52;100584.91;;;7.78;76.92
66398;BME280;54877;51.504;3.894;2024-02-26T12:30:18;100587.34;;;7.83;76.88
66398;BME280;54877;51.504;3.894;2024-02-26T12:32:44;100586.09;;;7.91;77.07
66398;BME280;54877;51.504;3.894;2024-02-26T12:35:11;100597.38;;;7.95;76.70
66398;BME280;54877;51.504;3.894;2024-02-26T12:37:37;100592.03;;;7.96;76.40
66398;BME280;54877;51.504;3.894;2024-02-26T12:40:05;100605.22;;;7.96;76.25
66398;BME280;54877;51.504;3.894;2024-02-26T12:42:33;100618.88;;;8.06;76.61
66398;BME280;54877;51.504;3.894;2024-02-26T12:45:04;100609.03;;;8.09;75.87
66398;BME280;54877;51.504;3.894;2024-02-26T12:50:03;100619.06;;;8.21;75.73
66398;BME280;54877;51.504;3.894;2024-02-26T12:52:29;100608.63;;;8.18;75.10
66398;BME280;54877;51.504;3.894;2024-02-26T12:54:56;100629.81;;;8.17;75.45
66398;BME280;54877;51.504;3.894;2024-02-26T12:57:21;100633.03;;;8.23;75.26
66398;BME280;54877;51.504;3.894;2024-02-26T12:59:47;100634.75;;;8.24;74.74
66398;BME280;54877;51.504;3.894;2024-02-26T13:02:12;100641.78;;;8.24;74.82
66398;BME280;54877;51.504;3.894;2024-02-26T13:04:38;100657.22;;;8.13;74.62
66398;BME280;54877;51.504;3.894;2024-02-26T13:07:04;100650.03;;;8.16;74.34